createdAt,value
2023-11-21T00:00:59.831Z,51.97
2023-11-21T00:01:59.960Z,52.02
2023-11-21T00:02:59.873Z,52.06
2023-11-21T00:03:59.860Z,52.05
2023-11-21T00:04:59.794Z,52.01
2023-11-21T00:05:59.793Z,52.04
2023-11-21T00:06:59.794Z,51.98
2023-11-21T00:07:59.790Z,51.98
2023-11-21T00:08:59.763Z,52.02
2023-11-21T00:09:59.757Z,51.96
2023-11-21T00:10:59.735Z,52.01
2023-11-21T00:11:59.736Z,52.01
2023-11-21T00:12:59.729Z,51.96
2023-11-21T00:13:59.717Z,51.94
2023-11-21T00:14:59.723Z,51.92
2023-11-21T00:15:59.698Z,51.92
2023-11-21T00:16:59.801Z,51.92
2023-11-21T00:17:59.719Z,51.90
2023-11-21T00:18:59.670Z,51.87
2023-11-21T00:19:59.671Z,51.88
2023-11-21T00:20:59.671Z,51.92
2023-11-21T00:21:59.657Z,51.95
2023-11-21T00:22:59.642Z,51.95
2023-11-21T00:23:59.643Z,51.93
2023-11-21T00:24:59.621Z,51.94
2023-11-21T00:25:59.633Z,51.92
2023-11-21T00:26:59.595Z,51.91
2023-11-21T00:27:59.620Z,51.90
2023-11-21T00:28:59.577Z,51.88
2023-11-21T00:29:59.597Z,51.89
2023-11-21T00:30:59.567Z,51.88
2023-11-21T00:31:59.564Z,51.88
2023-11-21T00:32:59.695Z,51.89
2023-11-21T00:33:59.546Z,51.94
2023-11-21T00:34:59.528Z,51.93
2023-11-21T00:35:59.521Z,51.94
2023-11-21T00:36:59.501Z,51.91
2023-11-21T00:37:59.503Z,51.90
2023-11-21T00:38:59.484Z,51.88
2023-11-21T00:39:59.481Z,51.90
2023-11-21T00:40:59.488Z,51.88
2023-11-21T00:41:59.465Z,51.88
2023-11-21T00:43:06.554Z,51.90
2023-11-21T00:43:59.450Z,51.90
2023-11-21T00:44:59.441Z,51.87
2023-11-21T00:45:59.430Z,51.87
2023-11-21T00:46:59.476Z,51.84
2023-11-21T00:47:59.465Z,51.83
2023-11-21T00:48:59.401Z,51.84
2023-11-21T00:49:59.395Z,51.79
2023-11-21T00:50:59.383Z,51.85
2023-11-21T00:51:59.389Z,51.86
2023-11-21T00:52:59.368Z,51.80
2023-11-21T00:53:59.371Z,51.76
2023-11-21T00:54:59.344Z,51.84
2023-11-21T00:55:59.351Z,51.85
2023-11-21T00:56:59.334Z,51.78
2023-11-21T00:57:59.331Z,51.80
2023-11-21T00:58:59.319Z,51.81
2023-11-21T00:59:59.340Z,51.79
2023-11-21T01:00:59.341Z,51.83
2023-11-21T01:01:59.332Z,51.76
2023-11-21T01:02:59.362Z,51.79
2023-11-21T01:03:59.284Z,51.82
2023-11-21T01:04:59.277Z,51.81
2023-11-21T01:06:00.120Z,51.77
2023-11-21T01:06:59.248Z,51.75
2023-11-21T01:07:59.259Z,51.76
2023-11-21T01:09:09.418Z,51.75
2023-11-21T01:09:59.246Z,51.80
2023-11-21T01:10:59.213Z,51.73
2023-11-21T01:11:59.221Z,51.75
2023-11-21T01:12:59.195Z,51.73
2023-11-21T01:13:59.205Z,51.69
2023-11-21T01:14:59.178Z,51.68
2023-11-21T01:15:59.180Z,51.64
2023-11-21T01:16:59.225Z,51.67
2023-11-21T01:17:59.172Z,51.71
2023-11-21T01:18:59.161Z,51.72
2023-11-21T01:19:59.771Z,51.71
2023-11-21T01:20:59.135Z,51.69
2023-11-21T01:21:59.154Z,51.71
2023-11-21T01:22:59.118Z,51.73
2023-11-21T01:23:59.106Z,51.71
2023-11-21T01:24:59.105Z,51.71
2023-11-21T01:25:59.101Z,51.68
2023-11-21T01:26:59.080Z,51.70
2023-11-21T01:27:59.084Z,51.65
2023-11-21T01:28:59.074Z,51.66
2023-11-21T01:29:59.064Z,51.63
2023-11-21T01:30:59.118Z,51.65
2023-11-21T01:31:59.125Z,51.68
2023-11-21T01:32:59.090Z,51.65
2023-11-21T01:33:59.019Z,51.62
2023-11-21T01:34:59.009Z,51.62
2023-11-21T01:35:59.007Z,51.66
2023-11-21T01:36:59.023Z,51.65
2023-11-21T01:37:58.988Z,51.66
2023-11-21T01:38:58.987Z,51.67
2023-11-21T01:39:58.968Z,51.68
2023-11-21T01:40:59.051Z,51.66
2023-11-21T01:41:58.953Z,51.63
2023-11-21T01:42:58.940Z,51.65
2023-11-21T01:43:58.931Z,51.57
2023-11-21T01:44:58.920Z,51.57
2023-11-21T01:45:58.925Z,51.59
2023-11-21T01:46:58.906Z,51.55
2023-11-21T01:47:58.944Z,51.57
2023-11-21T01:48:58.891Z,51.54
2023-11-21T01:49:58.885Z,51.51
2023-11-21T01:50:58.864Z,51.57
2023-11-21T01:51:58.862Z,51.54
2023-11-21T01:52:58.858Z,51.52
2023-11-21T01:53:58.846Z,51.53
2023-11-21T01:54:58.825Z,51.53
2023-11-21T01:55:59.062Z,51.52
2023-11-21T01:56:58.814Z,51.56
2023-11-21T01:57:59.024Z,51.55
2023-11-21T01:58:58.789Z,51.57
2023-11-21T01:59:58.787Z,51.55
2023-11-21T02:00:58.779Z,51.53
2023-11-21T02:01:58.778Z,51.54
2023-11-21T02:02:58.866Z,51.57
2023-11-21T02:03:58.786Z,51.56
2023-11-21T02:04:58.823Z,51.56
2023-11-21T02:05:58.737Z,51.56
2023-11-21T02:06:58.715Z,51.51
2023-11-21T02:07:58.744Z,51.52
2023-11-21T02:08:58.704Z,51.49
2023-11-21T02:09:58.705Z,51.47
2023-11-21T02:10:58.772Z,51.47
2023-11-21T02:11:59.205Z,51.46
2023-11-21T02:12:59.211Z,51.42
2023-11-21T02:13:58.670Z,51.43
2023-11-21T02:14:58.655Z,51.50
2023-11-21T02:15:58.651Z,51.51
2023-11-21T02:16:58.821Z,51.53
2023-11-21T02:17:58.671Z,51.53
2023-11-21T02:18:58.672Z,51.56
2023-11-21T02:19:58.613Z,51.51
2023-11-21T02:20:58.630Z,51.53
2023-11-21T02:21:58.592Z,51.53
2023-11-21T02:22:58.668Z,51.48
2023-11-21T02:23:58.577Z,51.46
2023-11-21T02:24:58.564Z,51.36
2023-11-21T02:25:58.608Z,51.36
2023-11-21T02:26:58.547Z,51.32
2023-11-21T02:27:58.534Z,51.25
2023-11-21T02:28:58.539Z,51.20
2023-11-21T02:29:58.514Z,51.18
2023-11-21T02:30:58.541Z,51.22
2023-11-21T02:31:58.542Z,51.16
2023-11-21T02:32:58.732Z,51.10
2023-11-21T02:33:58.485Z,51.12
2023-11-21T02:34:58.479Z,51.10
2023-11-21T02:35:58.481Z,51.06
2023-11-21T02:36:58.489Z,51.00
2023-11-21T02:37:58.469Z,51.04
2023-11-21T02:38:58.439Z,51.04
2023-11-21T02:39:58.949Z,51.00
2023-11-21T02:40:58.496Z,51.00
2023-11-21T02:41:58.417Z,50.98
2023-11-21T02:42:58.393Z,50.95
2023-11-21T02:43:58.398Z,50.94
2023-11-21T02:44:58.368Z,50.93
2023-11-21T02:45:58.379Z,50.90
2023-11-21T02:46:58.420Z,50.88
2023-11-21T02:47:59.163Z,50.87
2023-11-21T02:48:58.347Z,50.85
2023-11-21T02:49:58.339Z,50.85
2023-11-21T02:50:58.902Z,50.83
2023-11-21T02:51:58.312Z,50.79
2023-11-21T02:52:58.320Z,50.78
2023-11-21T02:53:58.295Z,50.77
2023-11-21T02:54:58.291Z,50.75
2023-11-21T02:55:58.303Z,50.75
2023-11-21T02:56:58.287Z,50.73
2023-11-21T02:57:58.300Z,50.73
2023-11-21T02:58:58.252Z,50.71
2023-11-21T02:59:58.258Z,50.69
2023-11-21T03:00:58.246Z,50.67
2023-11-21T03:01:58.335Z,50.68
2023-11-21T03:02:58.578Z,50.63
2023-11-21T03:03:58.333Z,50.60
2023-11-21T03:04:58.192Z,50.60
2023-11-21T03:05:58.195Z,50.61
2023-11-21T03:06:58.178Z,50.57
2023-11-21T03:07:58.177Z,50.54
2023-11-21T03:08:58.153Z,50.57
2023-11-21T03:09:58.165Z,50.54
2023-11-21T03:10:58.163Z,50.55
2023-11-21T03:11:58.140Z,50.49
2023-11-21T03:12:58.133Z,50.49
2023-11-21T03:13:58.115Z,50.50
2023-11-21T03:14:58.113Z,50.48
2023-11-21T03:15:58.146Z,50.45
2023-11-21T03:16:58.204Z,50.45
2023-11-21T03:17:58.186Z,50.43
2023-11-21T03:18:58.124Z,50.40
2023-11-21T03:19:58.067Z,50.39
2023-11-21T03:20:58.058Z,50.36
2023-11-21T03:21:58.056Z,50.38
2023-11-21T03:22:58.067Z,50.37
2023-11-21T03:23:58.043Z,50.35
2023-11-21T03:24:58.017Z,50.36
2023-11-21T03:25:58.024Z,50.32
2023-11-21T03:26:58.003Z,50.30
2023-11-21T03:27:58.574Z,50.30
2023-11-21T03:28:57.994Z,50.28
2023-11-21T03:29:58.001Z,50.27
2023-11-21T03:30:57.979Z,50.28
2023-11-21T03:31:57.995Z,50.22
2023-11-21T03:32:58.023Z,50.25
2023-11-21T03:33:57.988Z,50.25
2023-11-21T03:34:58.130Z,50.26
2023-11-21T03:35:57.945Z,50.23
2023-11-21T03:36:57.949Z,50.21
2023-11-21T03:37:57.947Z,50.19
2023-11-21T03:38:57.908Z,50.15
2023-11-21T03:39:58.550Z,50.19
2023-11-21T03:40:57.883Z,50.17
2023-11-21T03:41:57.928Z,50.18
2023-11-21T03:42:57.935Z,50.18
2023-11-21T03:43:57.885Z,50.17
2023-11-21T03:44:57.860Z,50.19
2023-11-21T03:45:57.836Z,50.17
2023-11-21T03:46:57.917Z,50.15
2023-11-21T03:47:57.949Z,50.13
2023-11-21T03:48:57.825Z,50.11
2023-11-21T03:49:57.898Z,50.12
2023-11-21T03:50:57.806Z,50.13
2023-11-21T03:51:57.788Z,50.08
2023-11-21T03:52:57.844Z,50.03
2023-11-21T03:53:57.779Z,50.08
2023-11-21T03:54:57.788Z,50.08
2023-11-21T03:55:57.812Z,50.03
2023-11-21T03:56:57.765Z,50.03
2023-11-21T03:57:57.748Z,50.03
2023-11-21T03:58:57.757Z,50.04
2023-11-21T03:59:57.728Z,50.00
2023-11-21T04:00:57.722Z,49.99
2023-11-21T04:01:57.738Z,50.00
2023-11-21T04:02:57.816Z,49.97
2023-11-21T04:03:57.753Z,49.97
2023-11-21T04:04:58.015Z,49.97
2023-11-21T04:05:57.666Z,50.01
2023-11-21T04:06:57.679Z,50.00
2023-11-21T04:07:57.686Z,49.96
2023-11-21T04:08:57.653Z,49.98
2023-11-21T04:09:57.630Z,49.97
2023-11-21T04:10:57.723Z,49.96
2023-11-21T04:11:57.618Z,49.98
2023-11-21T04:12:57.622Z,49.99
2023-11-21T04:13:57.597Z,50.01
2023-11-21T04:14:57.597Z,50.02
2023-11-21T04:15:58.094Z,49.94
2023-11-21T04:16:57.707Z,49.93
2023-11-21T04:17:57.687Z,49.96
2023-11-21T04:18:57.561Z,49.97
2023-11-21T04:19:57.570Z,49.95
2023-11-21T04:20:57.621Z,49.90
2023-11-21T04:21:57.537Z,49.83
2023-11-21T04:22:57.592Z,49.90
2023-11-21T04:23:57.521Z,49.91
2023-11-21T04:24:57.522Z,49.93
2023-11-21T04:25:57.540Z,49.86
2023-11-21T04:26:58.212Z,49.86
2023-11-21T04:27:57.486Z,49.85
2023-11-21T04:28:57.564Z,49.91
2023-11-21T04:29:57.459Z,49.89
2023-11-21T04:30:57.547Z,49.92
2023-11-21T04:32:02.513Z,49.84
2023-11-21T04:32:57.462Z,49.92
2023-11-21T04:33:57.433Z,49.92
2023-11-21T04:34:57.461Z,49.94
2023-11-21T04:35:57.416Z,49.90
2023-11-21T04:36:57.413Z,49.82
2023-11-21T04:37:57.424Z,49.86
2023-11-21T04:38:57.396Z,49.85
2023-11-21T04:39:57.385Z,49.86
2023-11-21T04:40:57.888Z,49.84
2023-11-21T04:41:57.358Z,49.83
2023-11-21T04:42:57.832Z,49.84
2023-11-21T04:43:57.390Z,49.78
2023-11-21T04:44:57.352Z,49.77
2023-11-21T04:45:57.345Z,49.82
2023-11-21T04:46:57.461Z,49.84
2023-11-21T04:47:57.353Z,49.81
2023-11-21T04:48:57.310Z,49.83
2023-11-21T04:49:57.369Z,49.80
2023-11-21T04:50:57.298Z,49.75
2023-11-21T04:51:57.304Z,49.82
2023-11-21T04:52:57.326Z,49.81
2023-11-21T04:53:57.728Z,49.78
2023-11-21T04:54:57.320Z,49.76
2023-11-21T04:55:57.333Z,49.71
2023-11-21T04:56:57.248Z,49.71
2023-11-21T04:57:57.227Z,49.72
2023-11-21T04:58:57.313Z,49.74
2023-11-21T04:59:57.497Z,49.80
2023-11-21T05:00:57.266Z,49.77
2023-11-21T05:01:57.335Z,49.76
2023-11-21T05:02:57.394Z,49.72
2023-11-21T05:03:57.274Z,49.63
2023-11-21T05:04:57.185Z,49.66
2023-11-21T05:05:57.219Z,49.72
2023-11-21T05:06:57.154Z,49.73
2023-11-21T05:07:57.162Z,49.75
2023-11-21T05:08:57.135Z,49.69
2023-11-21T05:09:57.140Z,49.65
2023-11-21T05:10:57.175Z,49.70
2023-11-21T05:11:57.130Z,49.65
2023-11-21T05:12:57.122Z,49.61
2023-11-21T05:13:57.090Z,49.70
2023-11-21T05:14:57.090Z,49.67
2023-11-21T05:15:57.083Z,49.61
2023-11-21T05:16:57.156Z,49.63
2023-11-21T05:17:57.073Z,49.61
2023-11-21T05:18:57.066Z,49.68
2023-11-21T05:19:57.103Z,49.60
2023-11-21T05:20:57.557Z,49.63
2023-11-21T05:21:57.027Z,49.71
2023-11-21T05:22:57.123Z,49.75
2023-11-21T05:23:57.000Z,49.65
2023-11-21T05:24:57.009Z,49.62
2023-11-21T05:25:57.014Z,49.62
2023-11-21T05:26:56.991Z,49.65
2023-11-21T05:27:56.989Z,49.61
2023-11-21T05:28:56.980Z,49.64
2023-11-21T05:29:56.965Z,49.60
2023-11-21T05:31:07.220Z,49.58
2023-11-21T05:31:58.017Z,49.65
2023-11-21T05:32:56.983Z,49.68
2023-11-21T05:33:56.945Z,49.62
2023-11-21T05:34:56.974Z,49.58
2023-11-21T05:35:56.904Z,49.57
2023-11-21T05:36:56.929Z,49.54
2023-11-21T05:37:56.951Z,49.57
2023-11-21T05:38:56.920Z,49.66
2023-11-21T05:39:56.879Z,49.58
2023-11-21T05:40:56.927Z,49.55
2023-11-21T05:42:17.896Z,49.54
2023-11-21T05:42:56.857Z,49.62
2023-11-21T05:43:56.861Z,49.52
2023-11-21T05:44:56.850Z,49.45
2023-11-21T05:45:56.816Z,49.45
2023-11-21T05:46:56.968Z,49.48
2023-11-21T05:47:56.920Z,49.51
2023-11-21T05:48:56.806Z,49.49
2023-11-21T05:49:56.848Z,49.49
2023-11-21T05:50:56.790Z,49.54
2023-11-21T05:51:56.766Z,49.51
2023-11-21T05:52:56.836Z,49.48
2023-11-21T05:53:56.754Z,49.53
2023-11-21T05:54:56.810Z,49.43
2023-11-21T05:55:56.818Z,49.45
2023-11-21T05:56:56.743Z,49.48
2023-11-21T05:57:56.733Z,49.48
2023-11-21T05:58:56.735Z,49.42
2023-11-21T05:59:56.699Z,49.41
2023-11-21T06:00:56.697Z,49.40
2023-11-21T06:01:56.774Z,49.47
2023-11-21T06:03:01.758Z,49.46
2023-11-21T06:03:56.735Z,49.47
2023-11-21T06:04:56.758Z,49.41
2023-11-21T06:05:56.694Z,49.41
2023-11-21T06:06:56.651Z,49.39
2023-11-21T06:07:56.786Z,49.41
2023-11-21T06:08:56.632Z,49.38
2023-11-21T06:09:56.629Z,49.38
2023-11-21T06:10:56.700Z,49.36
2023-11-21T06:11:56.604Z,49.34
2023-11-21T06:12:56.611Z,49.35
2023-11-21T06:13:56.632Z,49.38
2023-11-21T06:14:56.602Z,49.38
2023-11-21T06:15:56.567Z,49.36
2023-11-21T06:16:56.631Z,49.39
2023-11-21T06:17:56.598Z,49.33
2023-11-21T06:18:56.547Z,49.34
2023-11-21T06:19:56.543Z,49.34
2023-11-21T06:20:56.561Z,49.37
2023-11-21T06:21:56.518Z,49.40
2023-11-21T06:22:56.559Z,49.39
2023-11-21T06:23:56.511Z,49.37
2023-11-21T06:24:56.486Z,49.34
2023-11-21T06:25:56.503Z,49.31
2023-11-21T06:26:56.468Z,49.34
2023-11-21T06:27:56.454Z,49.24
2023-11-21T06:28:56.527Z,49.27
2023-11-21T06:29:56.457Z,49.25
2023-11-21T06:30:56.439Z,49.21
2023-11-21T06:31:57.352Z,49.27
2023-11-21T06:32:56.471Z,49.46
2023-11-21T06:33:56.398Z,49.41
2023-11-21T06:34:56.419Z,49.26
2023-11-21T06:35:56.385Z,49.30
2023-11-21T06:36:56.403Z,49.30
2023-11-21T06:37:56.400Z,49.16
2023-11-21T06:38:56.362Z,49.19
2023-11-21T06:39:56.349Z,49.18
2023-11-21T06:40:56.380Z,49.25
2023-11-21T06:41:56.321Z,49.34
2023-11-21T06:42:56.323Z,48.55
2023-11-21T06:43:56.350Z,46.24
2023-11-21T06:44:56.304Z,45.27
2023-11-21T06:45:56.282Z,44.92
2023-11-21T06:46:56.454Z,44.91
2023-11-21T06:47:56.387Z,44.96
2023-11-21T06:48:56.359Z,45.06
2023-11-21T06:49:56.286Z,45.62
2023-11-21T06:50:56.252Z,45.65
2023-11-21T06:51:56.240Z,45.18
2023-11-21T06:52:56.244Z,45.14
2023-11-21T06:53:56.218Z,45.30
2023-11-21T06:54:56.217Z,45.54
2023-11-21T06:55:56.233Z,45.97
2023-11-21T06:56:56.235Z,46.21
2023-11-21T06:57:56.186Z,46.38
2023-11-21T06:58:56.237Z,46.70
2023-11-21T06:59:56.205Z,46.94
2023-11-21T07:00:56.815Z,47.28
2023-11-21T07:01:56.331Z,47.46
2023-11-21T07:02:56.264Z,47.51
2023-11-21T07:03:56.310Z,47.64
2023-11-21T07:04:56.152Z,47.74
2023-11-21T07:05:56.110Z,47.74
2023-11-21T07:06:56.109Z,47.76
2023-11-21T07:07:56.148Z,47.79
2023-11-21T07:08:56.109Z,47.84
2023-11-21T07:09:56.083Z,47.92
2023-11-21T07:10:56.143Z,48.00
2023-11-21T07:11:56.060Z,48.06
2023-11-21T07:12:56.048Z,48.17
2023-11-21T07:13:56.112Z,48.26
2023-11-21T07:14:56.080Z,48.33
2023-11-21T07:15:56.052Z,48.40
2023-11-21T07:16:56.094Z,48.48
2023-11-21T07:17:56.070Z,48.55
2023-11-21T07:18:56.023Z,48.61
2023-11-21T07:19:56.020Z,48.71
2023-11-21T07:20:55.988Z,48.75
2023-11-21T07:21:55.965Z,48.81
2023-11-21T07:22:55.992Z,48.90
2023-11-21T07:23:55.946Z,48.95
2023-11-21T07:24:55.950Z,49.02
2023-11-21T07:25:55.970Z,49.12
2023-11-21T07:26:55.932Z,49.20
2023-11-21T07:27:55.912Z,49.25
2023-11-21T07:28:55.939Z,49.35
2023-11-21T07:29:55.900Z,49.38
2023-11-21T07:30:55.919Z,49.45
2023-11-21T07:31:56.003Z,49.53
2023-11-21T07:32:55.895Z,49.60
2023-11-21T07:33:55.865Z,49.67
2023-11-21T07:34:55.884Z,49.73
2023-11-21T07:35:55.840Z,49.82
2023-11-21T07:36:55.831Z,49.89
2023-11-21T07:37:55.942Z,50.00
2023-11-21T07:38:55.823Z,50.04
2023-11-21T07:39:55.808Z,50.12
2023-11-21T07:40:55.808Z,50.18
2023-11-21T07:41:55.794Z,50.24
2023-11-21T07:42:55.788Z,50.26
2023-11-21T07:43:55.813Z,50.35
2023-11-21T07:44:55.779Z,50.43
2023-11-21T07:45:55.753Z,50.49
2023-11-21T07:46:55.790Z,50.56
2023-11-21T07:47:55.877Z,50.64
2023-11-21T07:48:55.734Z,50.66
2023-11-21T07:49:55.739Z,50.64
2023-11-21T07:50:55.714Z,50.63
2023-11-21T07:51:55.713Z,50.62
2023-11-21T07:52:55.754Z,50.71
2023-11-21T07:53:55.692Z,50.87
2023-11-21T07:54:55.674Z,50.96
2023-11-21T07:55:55.683Z,51.08
2023-11-21T07:56:55.659Z,51.51
2023-11-21T07:57:55.645Z,53.19
2023-11-21T07:58:55.726Z,53.96
2023-11-21T07:59:55.662Z,53.85
2023-11-21T08:00:55.634Z,53.56
2023-11-21T08:01:55.729Z,54.18
2023-11-21T08:02:55.722Z,53.58
2023-11-21T08:03:55.671Z,53.82
2023-11-21T08:04:55.645Z,53.82
2023-11-21T08:05:55.608Z,53.51
2023-11-21T08:06:55.561Z,53.54
2023-11-21T08:07:55.617Z,53.42
2023-11-21T08:08:55.558Z,53.53
2023-11-21T08:09:55.547Z,53.57
2023-11-21T08:10:55.601Z,53.75
2023-11-21T08:11:55.530Z,53.74
2023-11-21T08:12:55.527Z,53.77
2023-11-21T08:13:55.530Z,53.89
2023-11-21T08:14:55.499Z,54.00
2023-11-21T08:15:55.492Z,54.05
2023-11-21T08:16:55.535Z,54.13
2023-11-21T08:17:55.534Z,54.21
2023-11-21T08:18:55.465Z,54.25
2023-11-21T08:19:55.545Z,54.39
2023-11-21T08:20:55.481Z,54.34
2023-11-21T08:21:55.471Z,54.52
2023-11-21T08:22:55.430Z,54.61
2023-11-21T08:23:55.571Z,54.75
2023-11-21T08:24:55.402Z,54.79
2023-11-21T08:25:55.547Z,54.86
2023-11-21T08:26:55.396Z,54.94
2023-11-21T08:27:55.397Z,54.88
2023-11-21T08:28:55.384Z,54.97
2023-11-21T08:29:55.366Z,55.11
2023-11-21T08:30:55.455Z,55.25
2023-11-21T08:31:55.427Z,55.26
2023-11-21T08:32:55.391Z,55.33
2023-11-21T08:33:55.334Z,55.38
2023-11-21T08:34:55.393Z,55.57
2023-11-21T08:35:55.387Z,55.56
2023-11-21T08:36:55.302Z,55.66
2023-11-21T08:37:55.299Z,55.73
2023-11-21T08:38:55.283Z,55.80
2023-11-21T08:39:55.274Z,55.86
2023-11-21T08:40:55.329Z,55.80
2023-11-21T08:41:55.268Z,55.93
2023-11-21T08:42:55.239Z,55.75
2023-11-21T08:43:55.427Z,56.23
2023-11-21T08:44:55.256Z,56.21
2023-11-21T08:45:55.265Z,56.14
2023-11-21T08:46:55.309Z,56.16
2023-11-21T08:47:55.224Z,56.10
2023-11-21T08:48:55.270Z,55.78
2023-11-21T08:49:55.263Z,52.24
2023-11-21T08:50:55.159Z,50.47
2023-11-21T08:51:55.171Z,50.66
2023-11-21T08:52:55.195Z,50.23
2023-11-21T08:53:55.151Z,50.38
2023-11-21T08:54:55.129Z,48.21
2023-11-21T08:55:55.211Z,47.78
2023-11-21T08:56:55.113Z,47.18
2023-11-21T08:57:55.117Z,47.63
2023-11-21T08:58:55.157Z,48.61
2023-11-21T08:59:55.090Z,50.14
2023-11-21T09:00:55.231Z,50.52
2023-11-21T09:01:55.244Z,50.57
2023-11-21T09:02:55.136Z,50.92
2023-11-21T09:03:55.120Z,51.03
2023-11-21T09:04:55.072Z,51.12
2023-11-21T09:05:55.038Z,51.14
2023-11-21T09:06:55.050Z,51.16
2023-11-21T09:07:55.024Z,51.21
2023-11-21T09:08:55.005Z,51.38
2023-11-21T09:09:55.093Z,51.39
2023-11-21T09:10:55.034Z,51.58
2023-11-21T09:11:54.980Z,51.53
2023-11-21T09:12:54.984Z,51.35
2023-11-21T09:13:55.008Z,51.24
2023-11-21T09:14:55.038Z,51.10
2023-11-21T09:15:54.950Z,50.97
2023-11-21T09:16:55.002Z,51.14
2023-11-21T09:17:54.933Z,51.10
2023-11-21T09:18:54.924Z,51.26
2023-11-21T09:19:54.922Z,51.31
2023-11-21T09:20:54.951Z,51.36
2023-11-21T09:21:54.895Z,51.49
2023-11-21T09:22:54.930Z,51.48
2023-11-21T09:23:54.868Z,51.48
2023-11-21T09:24:54.862Z,51.48
2023-11-21T09:25:54.877Z,51.57
2023-11-21T09:26:54.835Z,51.58
2023-11-21T09:27:54.838Z,51.65
2023-11-21T09:28:54.845Z,51.74
2023-11-21T09:29:54.902Z,51.84
2023-11-21T09:30:54.855Z,51.99
2023-11-21T09:31:54.794Z,52.21
2023-11-21T09:32:54.866Z,52.29
2023-11-21T09:33:54.768Z,52.39
2023-11-21T09:34:54.795Z,52.56
2023-11-21T09:35:54.754Z,52.68
2023-11-21T09:36:54.749Z,52.81
2023-11-21T09:37:54.753Z,52.96
2023-11-21T09:38:54.726Z,53.13
2023-11-21T09:39:54.728Z,53.11
2023-11-21T09:40:54.730Z,53.19
2023-11-21T09:41:54.712Z,53.25
2023-11-21T09:42:54.693Z,53.36
2023-11-21T09:43:54.762Z,53.35
2023-11-21T09:44:56.850Z,53.33
2023-11-21T09:45:54.675Z,53.36
2023-11-21T09:46:54.650Z,53.40
2023-11-21T09:47:54.684Z,53.44
2023-11-21T09:48:54.689Z,53.54
2023-11-21T09:49:54.679Z,53.62
2023-11-21T09:50:55.292Z,53.58
2023-11-21T09:51:54.622Z,53.66
2023-11-21T09:52:54.675Z,53.60
2023-11-21T09:53:54.639Z,53.59
2023-11-21T09:54:54.858Z,53.68
2023-11-21T09:55:54.907Z,53.76
2023-11-21T09:56:54.560Z,53.78
2023-11-21T09:57:54.572Z,53.82
2023-11-21T09:58:54.633Z,53.85
2023-11-21T09:59:54.542Z,53.92
2023-11-21T10:00:54.533Z,53.93
2023-11-21T10:01:54.669Z,53.96
2023-11-21T10:02:54.808Z,53.98
2023-11-21T10:03:54.653Z,54.01
2023-11-21T10:04:54.533Z,54.05
2023-11-21T10:05:54.513Z,54.05
2023-11-21T10:06:54.476Z,54.10
2023-11-21T10:07:54.531Z,54.09
2023-11-21T10:08:56.157Z,54.05
2023-11-21T10:09:54.470Z,54.11
2023-11-21T10:10:54.487Z,54.16
2023-11-21T10:11:54.460Z,54.16
2023-11-21T10:12:54.451Z,54.15
2023-11-21T10:13:54.466Z,54.17
2023-11-21T10:14:54.488Z,54.15
2023-11-21T10:15:54.741Z,54.21
2023-11-21T10:16:54.516Z,54.15
2023-11-21T10:17:54.420Z,54.13
2023-11-21T10:18:56.571Z,54.19
2023-11-21T10:19:55.377Z,54.28
2023-11-21T10:20:55.003Z,54.30
2023-11-21T10:21:54.363Z,54.33
2023-11-21T10:22:54.368Z,54.32
2023-11-21T10:23:54.347Z,54.36
2023-11-21T10:24:54.619Z,54.39
2023-11-21T10:25:54.687Z,54.42
2023-11-21T10:26:54.537Z,54.49
2023-11-21T10:27:54.301Z,54.36
2023-11-21T10:28:54.349Z,54.31
2023-11-21T10:29:54.290Z,54.32
2023-11-21T10:30:54.262Z,54.26
2023-11-21T10:31:54.349Z,54.24
2023-11-21T10:32:54.320Z,54.22
2023-11-21T10:33:54.242Z,54.21
2023-11-21T10:34:54.241Z,54.21
2023-11-21T10:35:54.238Z,54.20
2023-11-21T10:36:54.221Z,54.18
2023-11-21T10:37:54.237Z,54.18
2023-11-21T10:38:54.220Z,54.15
2023-11-21T10:39:54.192Z,54.13
2023-11-21T10:40:54.254Z,54.10
2023-11-21T10:41:54.216Z,54.08
2023-11-21T10:42:54.214Z,54.07
2023-11-21T10:43:54.200Z,54.05
2023-11-21T10:44:54.194Z,54.03
2023-11-21T10:45:54.179Z,54.01
2023-11-21T10:46:54.131Z,54.00
2023-11-21T10:47:54.216Z,54.00
2023-11-21T10:48:54.097Z,53.88
2023-11-21T10:49:54.141Z,52.61
2023-11-21T10:50:54.104Z,50.10
2023-11-21T10:51:54.110Z,50.44
2023-11-21T10:52:54.106Z,50.32
2023-11-21T10:53:54.077Z,50.41
2023-11-21T10:54:54.048Z,50.35
2023-11-21T10:55:54.118Z,51.15
2023-11-21T10:56:54.030Z,51.24
2023-11-21T10:57:54.032Z,51.42
2023-11-21T10:58:54.044Z,51.56
2023-11-21T10:59:54.008Z,51.43
2023-11-21T11:00:54.008Z,51.52
2023-11-21T11:01:54.079Z,51.49
2023-11-21T11:02:54.068Z,51.47
2023-11-21T11:03:54.058Z,51.44
2023-11-21T11:04:53.984Z,51.45
2023-11-21T11:05:54.316Z,51.51
2023-11-21T11:06:53.946Z,51.61
2023-11-21T11:07:53.974Z,51.68
2023-11-21T11:08:53.925Z,51.76
2023-11-21T11:09:53.938Z,51.81
2023-11-21T11:10:53.909Z,51.85
2023-11-21T11:11:54.021Z,51.93
2023-11-21T11:12:53.879Z,52.00
2023-11-21T11:13:53.898Z,52.05
2023-11-21T11:14:53.901Z,52.10
2023-11-21T11:15:53.869Z,52.19
2023-11-21T11:16:53.979Z,52.29
2023-11-21T11:17:53.900Z,52.44
2023-11-21T11:18:53.824Z,52.51
2023-11-21T11:19:53.861Z,52.47
2023-11-21T11:20:53.809Z,52.59
2023-11-21T11:21:53.805Z,52.59
2023-11-21T11:22:53.852Z,52.62
2023-11-21T11:23:53.786Z,52.82
2023-11-21T11:24:53.791Z,52.97
2023-11-21T11:25:53.809Z,52.93
2023-11-21T11:26:53.780Z,53.04
2023-11-21T11:27:53.754Z,53.11
2023-11-21T11:28:53.797Z,53.15
2023-11-21T11:29:53.736Z,53.17
2023-11-21T11:30:53.759Z,53.34
2023-11-21T11:31:53.731Z,53.50
2023-11-21T11:32:53.747Z,53.56
2023-11-21T11:33:53.716Z,53.70
2023-11-21T11:34:53.731Z,53.71
2023-11-21T11:35:53.698Z,53.78
2023-11-21T11:36:53.679Z,53.89
2023-11-21T11:37:53.764Z,53.90
2023-11-21T11:38:53.651Z,54.02
2023-11-21T11:39:53.671Z,54.11
2023-11-21T11:40:53.673Z,54.30
2023-11-21T11:41:53.643Z,54.44
2023-11-21T11:42:53.639Z,54.52
2023-11-21T11:43:53.627Z,54.59
2023-11-21T11:44:54.317Z,54.60
2023-11-21T11:45:53.606Z,54.58
2023-11-21T11:46:53.647Z,54.67
2023-11-21T11:47:53.621Z,54.57
2023-11-21T11:48:53.586Z,53.50
2023-11-21T11:49:53.571Z,49.07
2023-11-21T11:50:53.555Z,45.41
2023-11-21T11:51:53.543Z,44.35
2023-11-21T11:52:53.541Z,43.01
2023-11-21T11:53:53.544Z,42.48
2023-11-21T11:54:53.579Z,42.50
2023-11-21T11:55:53.518Z,42.37
2023-11-21T11:56:53.492Z,41.55
2023-11-21T11:57:54.149Z,43.25
2023-11-21T11:58:53.509Z,45.73
2023-11-21T11:59:53.464Z,48.21
2023-11-21T12:00:53.448Z,49.01
2023-11-21T12:01:53.489Z,49.27
2023-11-21T12:02:53.500Z,48.83
2023-11-21T12:03:53.617Z,48.67
2023-11-21T12:04:53.632Z,48.57
2023-11-21T12:05:53.421Z,48.52
2023-11-21T12:06:53.405Z,48.52
2023-11-21T12:07:53.421Z,48.63
2023-11-21T12:08:53.381Z,48.65
2023-11-21T12:09:53.385Z,48.67
2023-11-21T12:10:53.378Z,48.69
2023-11-21T12:11:53.371Z,48.71
2023-11-21T12:12:53.350Z,48.76
2023-11-21T12:13:53.359Z,48.73
2023-11-21T12:14:53.327Z,48.76
2023-11-21T12:15:53.351Z,48.75
2023-11-21T12:16:53.372Z,48.87
2023-11-21T12:17:53.317Z,48.97
2023-11-21T12:18:53.301Z,49.00
2023-11-21T12:19:53.339Z,49.06
2023-11-21T12:20:53.286Z,49.08
2023-11-21T12:21:53.269Z,49.20
2023-11-21T12:22:53.292Z,49.40
2023-11-21T12:23:53.240Z,49.57
2023-11-21T12:24:53.252Z,49.86
2023-11-21T12:25:53.311Z,49.94
2023-11-21T12:26:53.219Z,49.97
2023-11-21T12:27:53.232Z,50.06
2023-11-21T12:28:53.250Z,50.18
2023-11-21T12:29:53.734Z,50.27
2023-11-21T12:31:53.255Z,50.22
2023-11-21T12:32:53.561Z,50.23
2023-11-21T12:33:53.169Z,50.44
2023-11-21T12:34:53.207Z,50.51
2023-11-21T12:35:53.157Z,50.67
2023-11-21T12:36:53.159Z,50.72
2023-11-21T12:37:53.173Z,50.81
2023-11-21T12:38:53.122Z,50.93
2023-11-21T12:39:53.104Z,50.99
2023-11-21T12:40:53.132Z,51.09
2023-11-21T12:41:53.085Z,51.16
2023-11-21T12:42:53.096Z,51.21
2023-11-21T12:43:53.098Z,51.29
2023-11-21T12:44:53.070Z,51.34
2023-11-21T12:45:53.055Z,51.37
2023-11-21T12:46:53.086Z,51.41
2023-11-21T12:47:53.080Z,51.46
2023-11-21T12:48:53.032Z,51.51
2023-11-21T12:49:53.066Z,51.55
2023-11-21T12:50:53.009Z,51.58
2023-11-21T12:51:53.074Z,51.55
2023-11-21T12:52:53.116Z,51.61
2023-11-21T12:53:52.984Z,51.65